sensor_id;sensor_type;location;lat;lon;timestamp;temperature;humidity
37956;DHT22;23776;51.592;7.180;2022-12-22T00:01:35;9.50;52.50
37956;DHT22;23776;51.592;7.180;2022-12-22T00:04:20;9.50;52.70
37956;DHT22;23776;51.592;7.180;2022-12-22T00:07:05;9.50;53.40
37956;DHT22;23776;51.592;7.180;2022-12-22T00:09:49;9.50;53.00
37956;DHT22;23776;51.592;7.180;2022-12-22T00:12:33;9.50;53.30
37956;DHT22;23776;51.592;7.180;2022-12-22T00:15:18;9.50;53.40
37956;DHT22;23776;51.592;7.180;2022-12-22T00:18:03;9.40;53.30
37956;DHT22;23776;51.592;7.180;2022-12-22T00:20:48;9.40;53.90
37956;DHT22;23776;51.592;7.180;2022-12-22T00:23:32;9.40;53.80
37956;DHT22;23776;51.592;7.180;2022-12-22T00:26:17;9.50;53.60
37956;DHT22;23776;51.592;7.180;2022-12-22T00:29:01;9.40;53.60
37956;DHT22;23776;51.592;7.180;2022-12-22T00:31:46;9.40;53.50
37956;DHT22;23776;51.592;7.180;2022-12-22T00:34:38;9.40;53.50
37956;DHT22;23776;51.592;7.180;2022-12-22T00:37:28;9.50;53.60
37956;DHT22;23776;51.592;7.180;2022-12-22T00:40:22;9.30;53.50
37956;DHT22;23776;51.592;7.180;2022-12-22T00:43:07;9.40;53.40
37956;DHT22;23776;51.592;7.180;2022-12-22T00:45:52;9.30;53.40
37956;DHT22;23776;51.592;7.180;2022-12-22T00:48:38;9.40;53.30
37956;DHT22;23776;51.592;7.180;2022-12-22T00:51:23;9.30;53.20
37956;DHT22;23776;51.592;7.180;2022-12-22T00:54:09;9.30;53.30
37956;DHT22;23776;51.592;7.180;2022-12-22T00:56:54;9.30;53.30
37956;DHT22;23776;51.592;7.180;2022-12-22T00:59:39;9.40;53.40
37956;DHT22;23776;51.592;7.180;2022-12-22T01:02:23;9.40;53.30
37956;DHT22;23776;51.592;7.180;2022-12-22T01:05:08;9.40;53.30
37956;DHT22;23776;51.592;7.180;2022-12-22T01:07:53;9.30;52.50
37956;DHT22;23776;51.592;7.180;2022-12-22T01:10:38;9.30;52.90
37956;DHT22;23776;51.592;7.180;2022-12-22T01:13:23;9.30;53.20
37956;DHT22;23776;51.592;7.180;2022-12-22T01:16:10;9.40;53.40
37956;DHT22;23776;51.592;7.180;2022-12-22T01:18:55;9.40;53.30
37956;DHT22;23776;51.592;7.180;2022-12-22T01:21:39;9.40;53.40
37956;DHT22;23776;51.592;7.180;2022-12-22T01:24:25;9.50;53.30
37956;DHT22;23776;51.592;7.180;2022-12-22T01:27:10;9.50;53.30
37956;DHT22;23776;51.592;7.180;2022-12-22T01:29:55;9.60;53.30
37956;DHT22;23776;51.592;7.180;2022-12-22T01:32:39;9.60;53.30
37956;DHT22;23776;51.592;7.180;2022-12-22T01:35:26;9.60;53.50
37956;DHT22;23776;51.592;7.180;2022-12-22T01:38:11;9.60;53.60
37956;DHT22;23776;51.592;7.180;2022-12-22T01:40:55;9.60;53.80
37956;DHT22;23776;51.592;7.180;2022-12-22T01:43:40;9.60;53.90
37956;DHT22;23776;51.592;7.180;2022-12-22T01:46:34;9.60;53.80
37956;DHT22;23776;51.592;7.180;2022-12-22T01:49:28;9.60;53.90
37956;DHT22;23776;51.592;7.180;2022-12-22T01:52:15;9.60;53.70
37956;DHT22;23776;51.592;7.180;2022-12-22T01:55:04;9.60;53.70
37956;DHT22;23776;51.592;7.180;2022-12-22T01:57:48;9.60;53.50
37956;DHT22;23776;51.592;7.180;2022-12-22T02:00:33;9.60;53.80
37956;DHT22;23776;51.592;7.180;2022-12-22T02:03:20;9.70;53.90
37956;DHT22;23776;51.592;7.180;2022-12-22T02:09:37;9.60;53.90
37956;DHT22;23776;51.592;7.180;2022-12-22T02:15:52;11.20;54.90
37956;DHT22;23776;51.592;7.180;2022-12-22T02:25:26;9.70;54.10
37956;DHT22;23776;51.592;7.180;2022-12-22T02:28:11;9.70;54.10
37956;DHT22;23776;51.592;7.180;2022-12-22T02:30:56;9.70;54.10
37956;DHT22;23776;51.592;7.180;2022-12-22T02:33:41;9.80;54.30
37956;DHT22;23776;51.592;7.180;2022-12-22T02:36:52;9.70;54.30
37956;DHT22;23776;51.592;7.180;2022-12-22T02:39:49;9.80;54.30
37956;DHT22;23776;51.592;7.180;2022-12-22T02:45:45;9.70;54.20
37956;DHT22;23776;51.592;7.180;2022-12-22T02:48:49;9.80;54.30
37956;DHT22;23776;51.592;7.180;2022-12-22T02:51:36;10.20;54.50
37956;DHT22;23776;51.592;7.180;2022-12-22T02:54:22;9.80;54.40
37956;DHT22;23776;51.592;7.180;2022-12-22T02:57:07;9.80;54.40
37956;DHT22;23776;51.592;7.180;2022-12-22T02:59:51;9.80;54.40
37956;DHT22;23776;51.592;7.180;2022-12-22T03:02:36;9.80;54.40
37956;DHT22;23776;51.592;7.180;2022-12-22T03:05:20;9.80;54.30
37956;DHT22;23776;51.592;7.180;2022-12-22T03:08:04;9.80;53.90
37956;DHT22;23776;51.592;7.180;2022-12-22T03:10:48;9.80;54.90
37956;DHT22;23776;51.592;7.180;2022-12-22T03:13:32;9.80;54.40
37956;DHT22;23776;51.592;7.180;2022-12-22T03:16:16;9.80;54.40
37956;DHT22;23776;51.592;7.180;2022-12-22T03:19:00;9.80;54.40
37956;DHT22;23776;51.592;7.180;2022-12-22T03:21:44;9.90;54.40
37956;DHT22;23776;51.592;7.180;2022-12-22T03:24:28;9.80;54.30
37956;DHT22;23776;51.592;7.180;2022-12-22T03:27:12;9.90;54.40
37956;DHT22;23776;51.592;7.180;2022-12-22T03:29:38;9.80;54.50
37956;DHT22;23776;51.592;7.180;2022-12-22T03:32:03;9.90;54.40
37956;DHT22;23776;51.592;7.180;2022-12-22T03:34:29;9.90;54.40
37956;DHT22;23776;51.592;7.180;2022-12-22T03:36:55;9.90;54.50
37956;DHT22;23776;51.592;7.180;2022-12-22T03:39:20;9.90;54.50
37956;DHT22;23776;51.592;7.180;2022-12-22T03:41:46;9.90;54.50
37956;DHT22;23776;51.592;7.180;2022-12-22T03:44:30;9.90;54.50
37956;DHT22;23776;51.592;7.180;2022-12-22T03:47:14;9.90;54.60
37956;DHT22;23776;51.592;7.180;2022-12-22T03:49:40;9.90;54.50
37956;DHT22;23776;51.592;7.180;2022-12-22T03:52:05;9.90;54.50
37956;DHT22;23776;51.592;7.180;2022-12-22T03:54:31;9.90;54.60
37956;DHT22;23776;51.592;7.180;2022-12-22T03:56:56;9.90;54.60
37956;DHT22;23776;51.592;7.180;2022-12-22T03:59:22;10.00;54.70
37956;DHT22;23776;51.592;7.180;2022-12-22T04:01:50;10.00;54.70
37956;DHT22;23776;51.592;7.180;2022-12-22T04:04:18;9.90;54.60
37956;DHT22;23776;51.592;7.180;2022-12-22T04:06:44;10.00;54.70
37956;DHT22;23776;51.592;7.180;2022-12-22T04:09:10;10.10;54.70
37956;DHT22;23776;51.592;7.180;2022-12-22T04:11:35;10.00;54.70
37956;DHT22;23776;51.592;7.180;2022-12-22T04:14:20;10.00;54.60
37956;DHT22;23776;51.592;7.180;2022-12-22T04:16:46;10.00;54.50
37956;DHT22;23776;51.592;7.180;2022-12-22T04:19:11;9.90;54.60
37956;DHT22;23776;51.592;7.180;2022-12-22T04:21:37;9.90;54.60
37956;DHT22;23776;51.592;7.180;2022-12-22T04:24:03;9.90;54.60
37956;DHT22;23776;51.592;7.180;2022-12-22T04:26:29;9.90;54.50
37956;DHT22;23776;51.592;7.180;2022-12-22T04:28:54;9.90;54.50
37956;DHT22;23776;51.592;7.180;2022-12-22T04:31:21;9.90;54.60
37956;DHT22;23776;51.592;7.180;2022-12-22T04:33:47;9.90;54.60
37956;DHT22;23776;51.592;7.180;2022-12-22T04:36:13;9.90;54.50
37956;DHT22;23776;51.592;7.180;2022-12-22T04:38:39;9.90;54.50
37956;DHT22;23776;51.592;7.180;2022-12-22T04:41:05;9.90;54.50
37956;DHT22;23776;51.592;7.180;2022-12-22T04:43:31;9.90;54.60
37956;DHT22;23776;51.592;7.180;2022-12-22T04:45:57;10.00;54.70
37956;DHT22;23776;51.592;7.180;2022-12-22T04:48:24;9.90;54.60
37956;DHT22;23776;51.592;7.180;2022-12-22T04:50:54;10.00;55.20
37956;DHT22;23776;51.592;7.180;2022-12-22T04:53:21;9.90;54.70
37956;DHT22;23776;51.592;7.180;2022-12-22T04:55:49;9.90;54.50
37956;DHT22;23776;51.592;7.180;2022-12-22T04:58:15;9.90;54.50
37956;DHT22;23776;51.592;7.180;2022-12-22T05:00:41;9.80;54.30
37956;DHT22;23776;51.592;7.180;2022-12-22T05:03:07;9.90;54.50
37956;DHT22;23776;51.592;7.180;2022-12-22T05:05:34;9.90;54.30
37956;DHT22;23776;51.592;7.180;2022-12-22T05:08:00;9.90;53.90
37956;DHT22;23776;51.592;7.180;2022-12-22T05:10:26;9.90;54.30
37956;DHT22;23776;51.592;7.180;2022-12-22T05:12:51;10.00;54.30
37956;DHT22;23776;51.592;7.180;2022-12-22T05:15:24;10.00;54.40
37956;DHT22;23776;51.592;7.180;2022-12-22T05:17:50;9.90;53.80
37956;DHT22;23776;51.592;7.180;2022-12-22T05:20:16;9.90;54.20
37956;DHT22;23776;51.592;7.180;2022-12-22T05:22:41;9.90;54.20
37956;DHT22;23776;51.592;7.180;2022-12-22T05:25:08;9.90;54.30
37956;DHT22;23776;51.592;7.180;2022-12-22T05:27:34;9.90;54.30
37956;DHT22;23776;51.592;7.180;2022-12-22T05:30:00;9.90;54.30
37956;DHT22;23776;51.592;7.180;2022-12-22T05:32:25;9.90;54.40
37956;DHT22;23776;51.592;7.180;2022-12-22T05:34:51;9.80;54.20
37956;DHT22;23776;51.592;7.180;2022-12-22T05:37:16;9.90;54.30
37956;DHT22;23776;51.592;7.180;2022-12-22T05:39:42;9.90;54.20
37956;DHT22;23776;51.592;7.180;2022-12-22T05:42:08;9.90;54.30
37956;DHT22;23776;51.592;7.180;2022-12-22T05:44:34;9.90;54.30
37956;DHT22;23776;51.592;7.180;2022-12-22T05:46:59;10.00;54.30
37956;DHT22;23776;51.592;7.180;2022-12-22T05:49:25;9.90;54.30
37956;DHT22;23776;51.592;7.180;2022-12-22T05:51:51;9.90;54.30
37956;DHT22;23776;51.592;7.180;2022-12-22T05:54:18;9.90;54.40
37956;DHT22;23776;51.592;7.180;2022-12-22T05:56:44;9.90;54.40
37956;DHT22;23776;51.592;7.180;2022-12-22T05:59:10;9.90;54.40
37956;DHT22;23776;51.592;7.180;2022-12-22T06:01:36;9.90;54.40
37956;DHT22;23776;51.592;7.180;2022-12-22T06:04:02;9.90;54.40
37956;DHT22;23776;51.592;7.180;2022-12-22T06:06:28;8.50;53.70
37956;DHT22;23776;51.592;7.180;2022-12-22T06:08:54;9.90;54.30
37956;DHT22;23776;51.592;7.180;2022-12-22T06:11:19;9.80;54.30
37956;DHT22;23776;51.592;7.180;2022-12-22T06:13:45;9.90;54.50
37956;DHT22;23776;51.592;7.180;2022-12-22T06:16:11;9.90;54.50
37956;DHT22;23776;51.592;7.180;2022-12-22T06:18:37;10.00;54.60
37956;DHT22;23776;51.592;7.180;2022-12-22T06:21:03;10.00;54.70
37956;DHT22;23776;51.592;7.180;2022-12-22T06:23:28;10.00;54.70
37956;DHT22;23776;51.592;7.180;2022-12-22T06:25:59;10.00;54.80
37956;DHT22;23776;51.592;7.180;2022-12-22T06:28:25;10.10;54.80
37956;DHT22;23776;51.592;7.180;2022-12-22T06:30:51;10.00;54.80
37956;DHT22;23776;51.592;7.180;2022-12-22T06:33:17;10.10;54.90
37956;DHT22;23776;51.592;7.180;2022-12-22T06:35:43;10.10;55.00
37956;DHT22;23776;51.592;7.180;2022-12-22T06:38:09;10.00;54.80
37956;DHT22;23776;51.592;7.180;2022-12-22T06:40:35;9.90;54.70
37956;DHT22;23776;51.592;7.180;2022-12-22T06:43:00;9.90;54.70
37956;DHT22;23776;51.592;7.180;2022-12-22T06:45:40;9.90;54.70
37956;DHT22;23776;51.592;7.180;2022-12-22T06:48:07;9.80;54.20
37956;DHT22;23776;51.592;7.180;2022-12-22T06:50:33;9.80;54.60
37956;DHT22;23776;51.592;7.180;2022-12-22T06:52:58;9.90;54.70
37956;DHT22;23776;51.592;7.180;2022-12-22T06:55:24;9.90;54.70
37956;DHT22;23776;51.592;7.180;2022-12-22T06:57:50;9.90;54.30
37956;DHT22;23776;51.592;7.180;2022-12-22T07:00:15;9.90;54.70
37956;DHT22;23776;51.592;7.180;2022-12-22T07:02:41;10.00;54.80
37956;DHT22;23776;51.592;7.180;2022-12-22T07:05:07;9.90;54.80
37956;DHT22;23776;51.592;7.180;2022-12-22T07:07:33;9.90;54.80
37956;DHT22;23776;51.592;7.180;2022-12-22T07:09:58;9.90;54.70
37956;DHT22;23776;51.592;7.180;2022-12-22T07:12:24;9.90;54.70
37956;DHT22;23776;51.592;7.180;2022-12-22T07:14:50;10.10;54.70
37956;DHT22;23776;51.592;7.180;2022-12-22T07:17:15;9.90;55.10
37956;DHT22;23776;51.592;7.180;2022-12-22T07:19:41;9.90;54.70
37956;DHT22;23776;51.592;7.180;2022-12-22T07:22:07;9.90;54.50
37956;DHT22;23776;51.592;7.180;2022-12-22T07:24:32;9.90;54.40
37956;DHT22;23776;51.592;7.180;2022-12-22T07:26:59;9.90;54.40
37956;DHT22;23776;51.592;7.180;2022-12-22T07:29:25;9.90;54.40
37956;DHT22;23776;51.592;7.180;2022-12-22T07:31:50;10.00;54.50
37956;DHT22;23776;51.592;7.180;2022-12-22T07:34:16;9.90;54.50
37956;DHT22;23776;51.592;7.180;2022-12-22T07:36:42;9.80;54.40
37956;DHT22;23776;51.592;7.180;2022-12-22T07:39:11;9.90;54.20
37956;DHT22;23776;51.592;7.180;2022-12-22T07:41:37;9.90;53.90
37956;DHT22;23776;51.592;7.180;2022-12-22T07:44:22;9.90;53.90
37956;DHT22;23776;51.592;7.180;2022-12-22T07:46:48;9.90;53.90
37956;DHT22;23776;51.592;7.180;2022-12-22T07:49:14;9.90;53.60
37956;DHT22;23776;51.592;7.180;2022-12-22T07:51:58;9.90;53.20
37956;DHT22;23776;51.592;7.180;2022-12-22T07:54:25;9.90;53.00
37956;DHT22;23776;51.592;7.180;2022-12-22T07:56:52;9.90;52.60
37956;DHT22;23776;51.592;7.180;2022-12-22T07:59:19;9.90;52.50
37956;DHT22;23776;51.592;7.180;2022-12-22T08:01:45;9.80;52.50
37956;DHT22;23776;51.592;7.180;2022-12-22T08:04:12;9.80;52.20
37956;DHT22;23776;51.592;7.180;2022-12-22T08:06:38;9.80;52.10
37956;DHT22;23776;51.592;7.180;2022-12-22T08:09:05;9.90;52.20
37956;DHT22;23776;51.592;7.180;2022-12-22T08:11:31;9.90;52.10
37956;DHT22;23776;51.592;7.180;2022-12-22T08:13:57;9.90;52.50
37956;DHT22;23776;51.592;7.180;2022-12-22T08:16:22;9.90;52.60
37956;DHT22;23776;51.592;7.180;2022-12-22T08:18:48;9.80;52.60
37956;DHT22;23776;51.592;7.180;2022-12-22T08:21:14;9.90;52.70
37956;DHT22;23776;51.592;7.180;2022-12-22T08:23:40;9.90;52.30
37956;DHT22;23776;51.592;7.180;2022-12-22T08:26:13;9.80;52.40
37956;DHT22;23776;51.592;7.180;2022-12-22T08:28:45;9.80;52.10
37956;DHT22;23776;51.592;7.180;2022-12-22T08:31:12;9.80;52.10
37956;DHT22;23776;51.592;7.180;2022-12-22T08:33:38;9.90;52.30
37956;DHT22;23776;51.592;7.180;2022-12-22T08:36:04;9.90;52.70
37956;DHT22;23776;51.592;7.180;2022-12-22T08:38:31;9.80;52.70
37956;DHT22;23776;51.592;7.180;2022-12-22T08:40:57;9.80;52.20
37956;DHT22;23776;51.592;7.180;2022-12-22T08:43:23;9.70;51.80
37956;DHT22;23776;51.592;7.180;2022-12-22T08:45:50;9.80;51.60
37956;DHT22;23776;51.592;7.180;2022-12-22T08:48:16;9.80;51.70
37956;DHT22;23776;51.592;7.180;2022-12-22T08:50:41;9.80;51.80
37956;DHT22;23776;51.592;7.180;2022-12-22T08:53:08;9.80;51.70
37956;DHT22;23776;51.592;7.180;2022-12-22T08:55:34;9.80;51.80
37956;DHT22;23776;51.592;7.180;2022-12-22T08:57:59;9.80;51.60
37956;DHT22;23776;51.592;7.180;2022-12-22T09:00:26;9.80;52.10
37956;DHT22;23776;51.592;7.180;2022-12-22T09:02:52;9.70;52.00
37956;DHT22;23776;51.592;7.180;2022-12-22T09:05:18;9.70;51.30
37956;DHT22;23776;51.592;7.180;2022-12-22T09:07:43;9.70;51.00
37956;DHT22;23776;51.592;7.180;2022-12-22T09:10:12;9.70;50.70
37956;DHT22;23776;51.592;7.180;2022-12-22T09:12:38;9.80;50.40
37956;DHT22;23776;51.592;7.180;2022-12-22T09:15:04;7.80;49.40
37956;DHT22;23776;51.592;7.180;2022-12-22T09:17:31;9.80;50.20
37956;DHT22;23776;51.592;7.180;2022-12-22T09:19:57;9.90;50.40
37956;DHT22;23776;51.592;7.180;2022-12-22T09:22:22;9.90;50.70
37956;DHT22;23776;51.592;7.180;2022-12-22T09:24:48;9.80;51.50
37956;DHT22;23776;51.592;7.180;2022-12-22T09:27:13;9.90;51.40
37956;DHT22;23776;51.592;7.180;2022-12-22T09:29:39;9.90;51.00
37956;DHT22;23776;51.592;7.180;2022-12-22T09:32:05;10.00;51.00
37956;DHT22;23776;51.592;7.180;2022-12-22T09:34:31;10.10;51.80
37956;DHT22;23776;51.592;7.180;2022-12-22T09:36:56;10.00;53.00
37956;DHT22;23776;51.592;7.180;2022-12-22T09:39:22;10.10;52.70
37956;DHT22;23776;51.592;7.180;2022-12-22T09:41:53;8.20;52.00
37956;DHT22;23776;51.592;7.180;2022-12-22T09:44:27;10.00;53.60
37956;DHT22;23776;51.592;7.180;2022-12-22T09:46:56;10.00;53.50
37956;DHT22;23776;51.592;7.180;2022-12-22T09:49:22;10.20;53.40
37956;DHT22;23776;51.592;7.180;2022-12-22T09:51:57;10.10;53.20
37956;DHT22;23776;51.592;7.180;2022-12-22T09:54:24;10.10;53.70
37956;DHT22;23776;51.592;7.180;2022-12-22T09:56:50;10.20;54.40
37956;DHT22;23776;51.592;7.180;2022-12-22T09:59:18;10.10;54.60
37956;DHT22;23776;51.592;7.180;2022-12-22T10:04:40;10.00;54.50
37956;DHT22;23776;51.592;7.180;2022-12-22T10:07:23;10.00;54.20
37956;DHT22;23776;51.592;7.180;2022-12-22T10:09:50;9.90;54.50
37956;DHT22;23776;51.592;7.180;2022-12-22T10:12:19;9.80;54.20
37956;DHT22;23776;51.592;7.180;2022-12-22T10:14:49;9.80;54.30
37956;DHT22;23776;51.592;7.180;2022-12-22T10:17:30;9.80;54.20
37956;DHT22;23776;51.592;7.180;2022-12-22T10:28:00;9.80;53.60
37956;DHT22;23776;51.592;7.180;2022-12-22T10:30:31;9.80;54.10
37956;DHT22;23776;51.592;7.180;2022-12-22T10:33:09;9.80;53.90
37956;DHT22;23776;51.592;7.180;2022-12-22T10:35:42;9.70;53.60
37956;DHT22;23776;51.592;7.180;2022-12-22T10:38:26;9.60;53.20
37956;DHT22;23776;51.592;7.180;2022-12-22T10:41:14;9.60;53.90
37956;DHT22;23776;51.592;7.180;2022-12-22T10:46:14;9.60;53.80
37956;DHT22;23776;51.592;7.180;2022-12-22T10:48:40;9.60;52.70
37956;DHT22;23776;51.592;7.180;2022-12-22T10:51:08;9.50;51.50
37956;DHT22;23776;51.592;7.180;2022-12-22T10:56:05;9.50;47.20
37956;DHT22;23776;51.592;7.180;2022-12-22T10:58:54;9.40;48.80
37956;DHT22;23776;51.592;7.180;2022-12-22T11:01:35;9.40;48.30
37956;DHT22;23776;51.592;7.180;2022-12-22T11:04:24;9.50;49.20
37956;DHT22;23776;51.592;7.180;2022-12-22T11:06:52;9.60;48.20
37956;DHT22;23776;51.592;7.180;2022-12-22T11:09:18;9.70;50.30
37956;DHT22;23776;51.592;7.180;2022-12-22T11:11:55;10.10;46.40
37956;DHT22;23776;51.592;7.180;2022-12-22T11:14:30;10.70;22.50
37956;DHT22;23776;51.592;7.180;2022-12-22T11:19:54;11.80;1.00
37956;DHT22;23776;51.592;7.180;2022-12-22T11:22:38;12.00;1.00
37956;DHT22;23776;51.592;7.180;2022-12-22T11:25:28;11.30;1.00
37956;DHT22;23776;51.592;7.180;2022-12-22T11:28:07;10.40;9.10
37956;DHT22;23776;51.592;7.180;2022-12-22T11:31:01;10.30;13.10
37956;DHT22;23776;51.592;7.180;2022-12-22T11:36:38;10.10;20.30
37956;DHT22;23776;51.592;7.180;2022-12-22T11:46:32;9.50;27.50
37956;DHT22;23776;51.592;7.180;2022-12-22T11:49:28;9.70;30.10
37956;DHT22;23776;51.592;7.180;2022-12-22T11:59:46;11.20;1.00
37956;DHT22;23776;51.592;7.180;2022-12-22T12:10:30;11.70;1.00
37956;DHT22;23776;51.592;7.180;2022-12-22T12:15:53;11.30;1.00
37956;DHT22;23776;51.592;7.180;2022-12-22T12:21:26;10.70;1.00
37956;DHT22;23776;51.592;7.180;2022-12-22T12:24:17;10.50;1.00
37956;DHT22;23776;51.592;7.180;2022-12-22T12:35:09;12.00;1.00
37956;DHT22;23776;51.592;7.180;2022-12-22T12:37:47;10.20;1.00
37956;DHT22;23776;51.592;7.180;2022-12-22T12:42:51;10.30;1.00
37956;DHT22;23776;51.592;7.180;2022-12-22T12:45:41;10.40;1.00
37956;DHT22;23776;51.592;7.180;2022-12-22T12:48:37;10.30;1.00
37956;DHT22;23776;51.592;7.180;2022-12-22T12:54:45;10.50;1.00
37956;DHT22;23776;51.592;7.180;2022-12-22T12:57:44;10.50;1.00
37956;DHT22;23776;51.592;7.180;2022-12-22T13:08:25;10.40;1.00
37956;DHT22;23776;51.592;7.180;2022-12-22T13:23:38;10.30;1.00
37956;DHT22;23776;51.592;7.180;2022-12-22T13:26:14;10.40;1.00
37956;DHT22;23776;51.592;7.180;2022-12-22T13:28:42;10.30;1.00
37956;DHT22;23776;51.592;7.180;2022-12-22T13:31:30;10.40;1.00
37956;DHT22;23776;51.592;7.180;2022-12-22T13:34:52;10.50;1.00
37956;DHT22;23776;51.592;7.180;2022-12-22T13:36:52;10.60;1.00
37956;DHT22;23776;51.592;7.180;2022-12-22T13:39:19;10.70;1.00
37956;DHT22;23776;51.592;7.180;2022-12-22T13:41:47;10.70;1.00
37956;DHT22;23776;51.592;7.180;2022-12-22T13:44:18;10.70;1.00
37956;DHT22;23776;51.592;7.180;2022-12-22T13:46:44;10.70;1.00
37956;DHT22;23776;51.592;7.180;2022-12-22T13:49:16;10.60;1.00
37956;DHT22;23776;51.592;7.180;2022-12-22T13:51:42;10.50;1.00
37956;DHT22;23776;51.592;7.180;2022-12-22T13:56:50;10.60;1.00
37956;DHT22;23776;51.592;7.180;2022-12-22T13:59:39;10.70;1.00
37956;DHT22;23776;51.592;7.180;2022-12-22T14:04:35;11.00;1.00
37956;DHT22;23776;51.592;7.180;2022-12-22T14:09:49;10.90;1.00
37956;DHT22;23776;51.592;7.180;2022-12-22T14:12:17;10.80;1.00
37956;DHT22;23776;51.592;7.180;2022-12-22T14:14:45;10.60;1.00
37956;DHT22;23776;51.592;7.180;2022-12-22T14:17:33;10.50;1.00
37956;DHT22;23776;51.592;7.180;2022-12-22T14:20:01;10.40;1.00
37956;DHT22;23776;51.592;7.180;2022-12-22T14:22:40;10.30;1.00
37956;DHT22;23776;51.592;7.180;2022-12-22T14:25:20;10.40;1.00
37956;DHT22;23776;51.592;7.180;2022-12-22T14:27:50;10.40;1.00
37956;DHT22;23776;51.592;7.180;2022-12-22T14:30:22;10.40;1.00
37956;DHT22;23776;51.592;7.180;2022-12-22T14:32:50;10.40;1.00
37956;DHT22;23776;51.592;7.180;2022-12-22T14:35:28;10.40;1.00
37956;DHT22;23776;51.592;7.180;2022-12-22T14:38:15;10.30;1.00
37956;DHT22;23776;51.592;7.180;2022-12-22T14:40:42;10.20;1.00
37956;DHT22;23776;51.592;7.180;2022-12-22T14:46:04;10.10;1.00
37956;DHT22;23776;51.592;7.180;2022-12-22T14:48:44;10.10;1.00
37956;DHT22;23776;51.592;7.180;2022-12-22T14:51:16;10.10;1.00
37956;DHT22;23776;51.592;7.180;2022-12-22T14:53:47;10.10;1.00
37956;DHT22;23776;51.592;7.180;2022-12-22T14:56:14;10.10;1.00
37956;DHT22;23776;51.592;7.180;2022-12-22T14:58:43;10.10;1.00
37956;DHT22;23776;51.592;7.180;2022-12-22T15:01:19;10.10;1.00
37956;DHT22;23776;51.592;7.180;2022-12-22T15:04:18;10.00;1.00
37956;DHT22;23776;51.592;7.180;2022-12-22T15:06:46;10.00;1.00
37956;DHT22;23776;51.592;7.180;2022-12-22T15:11:48;10.00;1.00
37956;DHT22;23776;51.592;7.180;2022-12-22T15:14:27;10.00;1.00
37956;DHT22;23776;51.592;7.180;2022-12-22T15:16:55;10.00;1.00
37956;DHT22;23776;51.592;7.180;2022-12-22T15:19:22;9.90;1.00
37956;DHT22;23776;51.592;7.180;2022-12-22T15:21:49;9.80;1.00
37956;DHT22;23776;51.592;7.180;2022-12-22T15:24:16;9.80;1.00
37956;DHT22;23776;51.592;7.180;2022-12-22T15:26:43;9.80;1.00
37956;DHT22;23776;51.592;7.180;2022-12-22T15:29:09;9.70;1.00
37956;DHT22;23776;51.592;7.180;2022-12-22T15:31:36;9.60;1.00
37956;DHT22;23776;51.592;7.180;2022-12-22T15:34:03;9.60;1.00
37956;DHT22;23776;51.592;7.180;2022-12-22T15:36:34;9.50;1.00
37956;DHT22;23776;51.592;7.180;2022-12-22T15:39:00;9.50;1.00
37956;DHT22;23776;51.592;7.180;2022-12-22T15:41:25;9.50;1.00
37956;DHT22;23776;51.592;7.180;2022-12-22T15:43:51;9.50;1.00
37956;DHT22;23776;51.592;7.180;2022-12-22T15:46:16;9.40;1.00
37956;DHT22;23776;51.592;7.180;2022-12-22T15:48:44;9.40;1.00
37956;DHT22;23776;51.592;7.180;2022-12-22T15:51:21;9.40;1.00
37956;DHT22;23776;51.592;7.180;2022-12-22T15:53:48;9.40;1.00
37956;DHT22;23776;51.592;7.180;2022-12-22T15:56:17;9.40;1.00
37956;DHT22;23776;51.592;7.180;2022-12-22T15:58:44;9.40;1.00
37956;DHT22;23776;51.592;7.180;2022-12-22T16:01:11;9.50;1.00
37956;DHT22;23776;51.592;7.180;2022-12-22T16:03:37;9.50;1.00
37956;DHT22;23776;51.592;7.180;2022-12-22T16:06:03;9.50;1.00
37956;DHT22;23776;51.592;7.180;2022-12-22T16:08:32;9.50;1.00
37956;DHT22;23776;51.592;7.180;2022-12-22T16:11:01;9.50;1.00
37956;DHT22;23776;51.592;7.180;2022-12-22T16:13:27;9.50;1.00
37956;DHT22;23776;51.592;7.180;2022-12-22T16:15:53;9.50;1.00
37956;DHT22;23776;51.592;7.180;2022-12-22T16:18:18;9.50;1.00
37956;DHT22;23776;51.592;7.180;2022-12-22T16:20:44;9.60;1.00
37956;DHT22;23776;51.592;7.180;2022-12-22T16:23:22;9.60;1.00
37956;DHT22;23776;51.592;7.180;2022-12-22T16:25:50;9.60;1.00
37956;DHT22;23776;51.592;7.180;2022-12-22T16:28:21;10.80;1.00
37956;DHT22;23776;51.592;7.180;2022-12-22T16:30:48;9.50;1.00
37956;DHT22;23776;51.592;7.180;2022-12-22T16:33:14;9.50;4.20
37956;DHT22;23776;51.592;7.180;2022-12-22T16:35:40;9.50;8.30
37956;DHT22;23776;51.592;7.180;2022-12-22T16:38:07;9.40;9.00
37956;DHT22;23776;51.592;7.180;2022-12-22T16:40:56;9.40;10.60
37956;DHT22;23776;51.592;7.180;2022-12-22T16:43:27;9.40;12.20
37956;DHT22;23776;51.592;7.180;2022-12-22T16:45:54;9.40;14.40
37956;DHT22;23776;51.592;7.180;2022-12-22T16:48:26;9.40;15.50
37956;DHT22;23776;51.592;7.180;2022-12-22T16:50:52;9.40;17.10
37956;DHT22;23776;51.592;7.180;2022-12-22T16:53:18;9.40;18.30
37956;DHT22;23776;51.592;7.180;2022-12-22T16:55:44;9.30;22.50
37956;DHT22;23776;51.592;7.180;2022-12-22T16:58:10;9.20;25.20
37956;DHT22;23776;51.592;7.180;2022-12-22T17:00:37;9.20;26.60
37956;DHT22;23776;51.592;7.180;2022-12-22T17:03:13;9.10;28.10
37956;DHT22;23776;51.592;7.180;2022-12-22T17:05:43;9.10;29.50
37956;DHT22;23776;51.592;7.180;2022-12-22T17:08:23;9.00;31.30
37956;DHT22;23776;51.592;7.180;2022-12-22T17:10:50;9.00;32.00
37956;DHT22;23776;51.592;7.180;2022-12-22T17:13:18;9.00;32.80
37956;DHT22;23776;51.592;7.180;2022-12-22T17:15:44;9.00;33.90
37956;DHT22;23776;51.592;7.180;2022-12-22T17:18:15;9.00;35.30
37956;DHT22;23776;51.592;7.180;2022-12-22T17:20:41;9.00;36.00
37956;DHT22;23776;51.592;7.180;2022-12-22T17:26:02;9.00;37.60
37956;DHT22;23776;51.592;7.180;2022-12-22T17:28:31;9.00;39.30
37956;DHT22;23776;51.592;7.180;2022-12-22T17:30:56;9.00;40.30
37956;DHT22;23776;51.592;7.180;2022-12-22T17:33:22;9.00;40.50
37956;DHT22;23776;51.592;7.180;2022-12-22T17:35:48;9.00;43.50
37956;DHT22;23776;51.592;7.180;2022-12-22T17:38:16;9.00;46.00
37956;DHT22;23776;51.592;7.180;2022-12-22T17:40:43;8.90;48.40
37956;DHT22;23776;51.592;7.180;2022-12-22T17:43:17;8.90;49.30
37956;DHT22;23776;51.592;7.180;2022-12-22T17:45:44;8.90;48.70
37956;DHT22;23776;51.592;7.180;2022-12-22T17:48:11;9.00;48.70
37956;DHT22;23776;51.592;7.180;2022-12-22T17:50:37;9.00;49.00
37956;DHT22;23776;51.592;7.180;2022-12-22T17:53:04;9.00;48.30
37956;DHT22;23776;51.592;7.180;2022-12-22T17:55:30;9.00;48.90
37956;DHT22;23776;51.592;7.180;2022-12-22T17:57:56;9.00;48.70
37956;DHT22;23776;51.592;7.180;2022-12-22T18:00:27;9.00;49.10
37956;DHT22;23776;51.592;7.180;2022-12-22T18:02:53;9.00;49.30
37956;DHT22;23776;51.592;7.180;2022-12-22T18:05:25;9.00;49.20
37956;DHT22;23776;51.592;7.180;2022-12-22T18:07:53;9.00;49.50
37956;DHT22;23776;51.592;7.180;2022-12-22T18:10:21;9.10;50.10
37956;DHT22;23776;51.592;7.180;2022-12-22T18:12:48;9.10;50.70
37956;DHT22;23776;51.592;7.180;2022-12-22T18:15:16;9.10;50.90
37956;DHT22;23776;51.592;7.180;2022-12-22T18:17:43;9.20;51.60